sensor_id;sensor_type;location;lat;lon;timestamp;P1;durP1;ratioP1;P2;durP2;ratioP2
32826;SDS011;51059;42.058;27.986;2023-04-03T00:00:13;10.90;;;5.50;;
32826;SDS011;51059;42.058;27.986;2023-04-03T00:02:39;12.20;;;6.00;;
32826;SDS011;51059;42.058;27.986;2023-04-03T00:05:06;12.90;;;5.27;;
32826;SDS011;51059;42.058;27.986;2023-04-03T00:07:32;13.47;;;5.67;;
32826;SDS011;51059;42.058;27.986;2023-04-03T00:09:57;12.57;;;5.07;;
32826;SDS011;51059;42.058;27.986;2023-04-03T00:12:23;14.33;;;5.67;;
32826;SDS011;51059;42.058;27.986;2023-04-03T00:14:49;9.60;;;5.10;;
32826;SDS011;51059;42.058;27.986;2023-04-03T00:17:14;12.67;;;5.43;;
32826;SDS011;51059;42.058;27.986;2023-04-03T00:19:40;12.83;;;5.67;;
32826;SDS011;51059;42.058;27.986;2023-04-03T00:22:05;12.23;;;6.23;;
32826;SDS011;51059;42.058;27.986;2023-04-03T00:24:31;12.97;;;6.47;;
32826;SDS011;51059;42.058;27.986;2023-04-03T00:26:57;12.50;;;6.27;;
32826;SDS011;51059;42.058;27.986;2023-04-03T00:29:22;11.63;;;5.60;;
32826;SDS011;51059;42.058;27.986;2023-04-03T00:31:48;10.07;;;5.53;;
32826;SDS011;51059;42.058;27.986;2023-04-03T00:34:13;11.97;;;5.77;;
32826;SDS011;51059;42.058;27.986;2023-04-03T00:36:39;11.60;;;6.00;;
32826;SDS011;51059;42.058;27.986;2023-04-03T00:41:40;14.47;;;6.63;;
32826;SDS011;51059;42.058;27.986;2023-04-03T00:44:21;11.80;;;6.53;;
32826;SDS011;51059;42.058;27.986;2023-04-03T00:47:08;19.70;;;6.83;;
32826;SDS011;51059;42.058;27.986;2023-04-03T00:49:39;11.57;;;6.00;;
32826;SDS011;51059;42.058;27.986;2023-04-03T00:52:05;16.53;;;6.40;;
32826;SDS011;51059;42.058;27.986;2023-04-03T00:54:33;9.93;;;6.07;;
32826;SDS011;51059;42.058;27.986;2023-04-03T00:57:00;18.77;;;6.10;;
32826;SDS011;51059;42.058;27.986;2023-04-03T00:59:27;12.43;;;6.23;;
32826;SDS011;51059;42.058;27.986;2023-04-03T01:01:56;15.77;;;6.20;;
32826;SDS011;51059;42.058;27.986;2023-04-03T01:04:33;14.97;;;6.07;;
32826;SDS011;51059;42.058;27.986;2023-04-03T01:07:05;15.70;;;6.23;;
32826;SDS011;51059;42.058;27.986;2023-04-03T01:09:33;14.43;;;6.30;;
32826;SDS011;51059;42.058;27.986;2023-04-03T01:12:22;15.97;;;6.17;;
32826;SDS011;51059;42.058;27.986;2023-04-03T01:14:50;9.43;;;6.00;;
32826;SDS011;51059;42.058;27.986;2023-04-03T01:17:28;12.50;;;6.67;;
32826;SDS011;51059;42.058;27.986;2023-04-03T01:20:14;12.27;;;6.80;;
32826;SDS011;51059;42.058;27.986;2023-04-03T01:23:12;15.57;;;6.73;;
32826;SDS011;51059;42.058;27.986;2023-04-03T01:25:47;14.47;;;6.80;;
32826;SDS011;51059;42.058;27.986;2023-04-03T01:28:20;13.63;;;6.80;;
32826;SDS011;51059;42.058;27.986;2023-04-03T01:31:18;16.00;;;6.67;;
32826;SDS011;51059;42.058;27.986;2023-04-03T01:33:48;16.13;;;6.70;;
32826;SDS011;51059;42.058;27.986;2023-04-03T01:36:15;14.17;;;6.67;;
32826;SDS011;51059;42.058;27.986;2023-04-03T01:38:45;17.03;;;7.03;;
32826;SDS011;51059;42.058;27.986;2023-04-03T01:41:12;14.50;;;7.17;;
32826;SDS011;51059;42.058;27.986;2023-04-03T01:43:37;15.50;;;7.23;;
32826;SDS011;51059;42.058;27.986;2023-04-03T01:46:03;11.23;;;6.53;;
32826;SDS011;51059;42.058;27.986;2023-04-03T01:48:29;12.97;;;7.27;;
32826;SDS011;51059;42.058;27.986;2023-04-03T01:50:54;12.40;;;6.37;;
32826;SDS011;51059;42.058;27.986;2023-04-03T01:53:20;15.23;;;6.43;;
32826;SDS011;51059;42.058;27.986;2023-04-03T01:55:45;13.50;;;5.80;;
32826;SDS011;51059;42.058;27.986;2023-04-03T01:58:11;12.40;;;6.13;;
32826;SDS011;51059;42.058;27.986;2023-04-03T02:00:37;12.93;;;5.97;;
32826;SDS011;51059;42.058;27.986;2023-04-03T02:03:02;13.17;;;6.27;;
32826;SDS011;51059;42.058;27.986;2023-04-03T02:05:28;12.90;;;5.67;;
32826;SDS011;51059;42.058;27.986;2023-04-03T02:07:54;13.17;;;6.27;;
32826;SDS011;51059;42.058;27.986;2023-04-03T02:10:19;14.70;;;7.63;;
32826;SDS011;51059;42.058;27.986;2023-04-03T02:12:45;16.23;;;8.77;;
32826;SDS011;51059;42.058;27.986;2023-04-03T02:15:11;16.30;;;8.60;;
32826;SDS011;51059;42.058;27.986;2023-04-03T02:17:36;21.13;;;9.37;;
32826;SDS011;51059;42.058;27.986;2023-04-03T02:20:03;17.37;;;9.57;;
32826;SDS011;51059;42.058;27.986;2023-04-03T02:22:29;18.43;;;9.27;;
32826;SDS011;51059;42.058;27.986;2023-04-03T02:24:54;16.60;;;10.03;;
32826;SDS011;51059;42.058;27.986;2023-04-03T02:27:20;15.13;;;9.20;;
32826;SDS011;51059;42.058;27.986;2023-04-03T02:29:45;16.60;;;10.27;;
32826;SDS011;51059;42.058;27.986;2023-04-03T02:32:11;17.77;;;10.30;;
32826;SDS011;51059;42.058;27.986;2023-04-03T02:34:36;16.37;;;8.33;;
32826;SDS011;51059;42.058;27.986;2023-04-03T02:37:02;14.33;;;7.13;;
32826;SDS011;51059;42.058;27.986;2023-04-03T02:39:28;11.93;;;6.27;;
32826;SDS011;51059;42.058;27.986;2023-04-03T02:41:53;15.70;;;6.73;;
32826;SDS011;51059;42.058;27.986;2023-04-03T02:44:19;15.13;;;7.70;;
32826;SDS011;51059;42.058;27.986;2023-04-03T02:46:44;18.03;;;8.77;;
32826;SDS011;51059;42.058;27.986;2023-04-03T02:49:10;17.70;;;8.70;;
32826;SDS011;51059;42.058;27.986;2023-04-03T02:51:36;20.60;;;9.83;;
32826;SDS011;51059;42.058;27.986;2023-04-03T02:54:01;16.63;;;8.80;;
32826;SDS011;51059;42.058;27.986;2023-04-03T02:56:27;17.27;;;8.20;;
32826;SDS011;51059;42.058;27.986;2023-04-03T02:58:53;12.73;;;7.97;;
32826;SDS011;51059;42.058;27.986;2023-04-03T03:01:18;14.00;;;7.93;;
32826;SDS011;51059;42.058;27.986;2023-04-03T03:03:44;20.57;;;8.67;;
32826;SDS011;51059;42.058;27.986;2023-04-03T03:06:11;17.17;;;9.27;;
32826;SDS011;51059;42.058;27.986;2023-04-03T03:08:38;17.20;;;8.83;;
32826;SDS011;51059;42.058;27.986;2023-04-03T03:11:04;18.17;;;10.10;;
32826;SDS011;51059;42.058;27.986;2023-04-03T03:13:31;18.57;;;9.33;;
32826;SDS011;51059;42.058;27.986;2023-04-03T03:15:56;18.93;;;9.07;;
32826;SDS011;51059;42.058;27.986;2023-04-03T03:18:22;14.70;;;7.97;;
32826;SDS011;51059;42.058;27.986;2023-04-03T03:20:51;13.83;;;7.73;;
32826;SDS011;51059;42.058;27.986;2023-04-03T03:23:18;17.03;;;8.10;;
32826;SDS011;51059;42.058;27.986;2023-04-03T03:25:43;16.23;;;8.57;;
32826;SDS011;51059;42.058;27.986;2023-04-03T03:28:09;16.07;;;8.30;;
32826;SDS011;51059;42.058;27.986;2023-04-03T03:30:35;11.23;;;6.67;;
32826;SDS011;51059;42.058;27.986;2023-04-03T03:33:00;12.47;;;6.90;;
32826;SDS011;51059;42.058;27.986;2023-04-03T03:35:26;15.53;;;6.40;;
32826;SDS011;51059;42.058;27.986;2023-04-03T03:37:52;11.53;;;6.60;;
32826;SDS011;51059;42.058;27.986;2023-04-03T03:40:17;11.30;;;6.60;;
32826;SDS011;51059;42.058;27.986;2023-04-03T03:42:43;16.73;;;6.93;;
32826;SDS011;51059;42.058;27.986;2023-04-03T03:45:08;13.10;;;6.40;;
32826;SDS011;51059;42.058;27.986;2023-04-03T03:47:34;12.40;;;6.00;;
32826;SDS011;51059;42.058;27.986;2023-04-03T03:50:00;12.03;;;6.63;;
32826;SDS011;51059;42.058;27.986;2023-04-03T03:52:26;13.07;;;6.50;;
32826;SDS011;51059;42.058;27.986;2023-04-03T03:54:52;13.93;;;6.87;;
32826;SDS011;51059;42.058;27.986;2023-04-03T03:57:17;15.93;;;7.83;;
32826;SDS011;51059;42.058;27.986;2023-04-03T03:59:43;14.83;;;7.40;;
32826;SDS011;51059;42.058;27.986;2023-04-03T04:02:09;18.07;;;8.03;;
32826;SDS011;51059;42.058;27.986;2023-04-03T04:04:36;16.97;;;8.30;;
32826;SDS011;51059;42.058;27.986;2023-04-03T04:07:02;14.07;;;7.50;;
32826;SDS011;51059;42.058;27.986;2023-04-03T04:09:28;12.77;;;6.37;;
32826;SDS011;51059;42.058;27.986;2023-04-03T04:11:54;12.03;;;6.77;;
32826;SDS011;51059;42.058;27.986;2023-04-03T04:14:20;14.43;;;6.60;;
32826;SDS011;51059;42.058;27.986;2023-04-03T04:16:46;12.87;;;6.43;;
32826;SDS011;51059;42.058;27.986;2023-04-03T04:19:12;10.87;;;5.93;;
32826;SDS011;51059;42.058;27.986;2023-04-03T04:21:38;12.30;;;5.93;;
32826;SDS011;51059;42.058;27.986;2023-04-03T04:24:04;12.13;;;6.40;;
32826;SDS011;51059;42.058;27.986;2023-04-03T04:26:30;15.27;;;6.93;;
32826;SDS011;51059;42.058;27.986;2023-04-03T04:28:56;15.63;;;7.40;;
32826;SDS011;51059;42.058;27.986;2023-04-03T04:31:22;11.93;;;6.93;;
32826;SDS011;51059;42.058;27.986;2023-04-03T04:33:47;8.20;;;5.93;;
32826;SDS011;51059;42.058;27.986;2023-04-03T04:36:13;13.07;;;6.10;;
32826;SDS011;51059;42.058;27.986;2023-04-03T04:38:39;9.30;;;5.87;;
32826;SDS011;51059;42.058;27.986;2023-04-03T04:41:05;13.67;;;6.27;;
32826;SDS011;51059;42.058;27.986;2023-04-03T04:43:31;12.37;;;7.17;;
32826;SDS011;51059;42.058;27.986;2023-04-03T04:46:06;15.13;;;6.67;;
32826;SDS011;51059;42.058;27.986;2023-04-03T04:48:33;11.93;;;6.30;;
32826;SDS011;51059;42.058;27.986;2023-04-03T04:51:00;10.13;;;6.17;;
32826;SDS011;51059;42.058;27.986;2023-04-03T04:53:26;11.53;;;6.63;;
32826;SDS011;51059;42.058;27.986;2023-04-03T04:55:51;12.43;;;6.73;;
32826;SDS011;51059;42.058;27.986;2023-04-03T04:58:17;14.77;;;7.50;;
32826;SDS011;51059;42.058;27.986;2023-04-03T05:00:43;13.87;;;7.40;;
32826;SDS011;51059;42.058;27.986;2023-04-03T05:03:09;15.83;;;7.03;;
32826;SDS011;51059;42.058;27.986;2023-04-03T05:05:34;12.57;;;6.90;;
32826;SDS011;51059;42.058;27.986;2023-04-03T05:08:00;12.60;;;7.63;;
32826;SDS011;51059;42.058;27.986;2023-04-03T05:10:27;12.20;;;7.67;;
32826;SDS011;51059;42.058;27.986;2023-04-03T05:12:52;11.70;;;7.20;;
32826;SDS011;51059;42.058;27.986;2023-04-03T05:15:18;13.50;;;7.33;;
32826;SDS011;51059;42.058;27.986;2023-04-03T05:17:43;17.07;;;7.30;;
32826;SDS011;51059;42.058;27.986;2023-04-03T05:20:09;14.37;;;7.00;;
32826;SDS011;51059;42.058;27.986;2023-04-03T05:22:35;11.70;;;6.93;;
32826;SDS011;51059;42.058;27.986;2023-04-03T05:25:01;13.93;;;7.10;;
32826;SDS011;51059;42.058;27.986;2023-04-03T05:27:26;12.13;;;6.57;;
32826;SDS011;51059;42.058;27.986;2023-04-03T05:29:53;12.17;;;6.50;;
32826;SDS011;51059;42.058;27.986;2023-04-03T05:32:19;12.20;;;6.20;;
32826;SDS011;51059;42.058;27.986;2023-04-03T05:34:45;9.67;;;5.20;;
32826;SDS011;51059;42.058;27.986;2023-04-03T05:37:11;8.03;;;5.13;;
32826;SDS011;51059;42.058;27.986;2023-04-03T05:39:37;11.53;;;5.30;;
32826;SDS011;51059;42.058;27.986;2023-04-03T05:42:05;13.73;;;5.73;;
32826;SDS011;51059;42.058;27.986;2023-04-03T05:44:31;10.53;;;4.87;;
32826;SDS011;51059;42.058;27.986;2023-04-03T05:46:56;8.13;;;5.30;;
32826;SDS011;51059;42.058;27.986;2023-04-03T05:49:22;10.93;;;5.23;;
32826;SDS011;51059;42.058;27.986;2023-04-03T05:51:48;8.00;;;4.87;;
32826;SDS011;51059;42.058;27.986;2023-04-03T05:54:16;8.87;;;5.60;;
32826;SDS011;51059;42.058;27.986;2023-04-03T05:56:48;11.87;;;6.67;;
32826;SDS011;51059;42.058;27.986;2023-04-03T05:59:15;11.13;;;6.60;;
32826;SDS011;51059;42.058;27.986;2023-04-03T06:01:41;13.03;;;6.20;;
32826;SDS011;51059;42.058;27.986;2023-04-03T06:04:06;8.20;;;5.40;;
32826;SDS011;51059;42.058;27.986;2023-04-03T06:06:45;9.83;;;5.63;;
32826;SDS011;51059;42.058;27.986;2023-04-03T06:09:13;10.57;;;5.57;;
32826;SDS011;51059;42.058;27.986;2023-04-03T06:11:40;11.33;;;5.43;;
32826;SDS011;51059;42.058;27.986;2023-04-03T06:14:07;9.73;;;5.60;;
32826;SDS011;51059;42.058;27.986;2023-04-03T06:16:33;12.43;;;5.63;;
32826;SDS011;51059;42.058;27.986;2023-04-03T06:18:59;14.23;;;5.93;;
32826;SDS011;51059;42.058;27.986;2023-04-03T06:21:24;9.30;;;5.20;;
32826;SDS011;51059;42.058;27.986;2023-04-03T06:23:50;13.40;;;5.43;;
32826;SDS011;51059;42.058;27.986;2023-04-03T06:26:16;13.87;;;5.80;;
32826;SDS011;51059;42.058;27.986;2023-04-03T06:28:42;11.10;;;5.50;;
32826;SDS011;51059;42.058;27.986;2023-04-03T06:31:08;11.13;;;5.00;;
32826;SDS011;51059;42.058;27.986;2023-04-03T06:33:34;10.50;;;4.77;;
32826;SDS011;51059;42.058;27.986;2023-04-03T06:35:59;7.77;;;5.10;;
32826;SDS011;51059;42.058;27.986;2023-04-03T06:38:28;9.10;;;4.83;;
32826;SDS011;51059;42.058;27.986;2023-04-03T06:40:53;9.37;;;5.40;;
32826;SDS011;51059;42.058;27.986;2023-04-03T06:43:19;12.93;;;5.83;;
32826;SDS011;51059;42.058;27.986;2023-04-03T06:45:46;13.40;;;6.17;;
32826;SDS011;51059;42.058;27.986;2023-04-03T06:48:12;14.13;;;5.87;;
32826;SDS011;51059;42.058;27.986;2023-04-03T06:50:38;16.33;;;5.60;;
32826;SDS011;51059;42.058;27.986;2023-04-03T06:53:03;10.50;;;5.53;;
32826;SDS011;51059;42.058;27.986;2023-04-03T06:55:29;12.07;;;5.80;;
32826;SDS011;51059;42.058;27.986;2023-04-03T06:57:54;10.23;;;5.87;;
32826;SDS011;51059;42.058;27.986;2023-04-03T07:00:20;11.73;;;5.20;;
32826;SDS011;51059;42.058;27.986;2023-04-03T07:02:46;12.30;;;6.27;;
32826;SDS011;51059;42.058;27.986;2023-04-03T07:05:12;11.57;;;5.67;;
32826;SDS011;51059;42.058;27.986;2023-04-03T07:07:38;13.83;;;5.73;;
32826;SDS011;51059;42.058;27.986;2023-04-03T07:10:05;12.30;;;5.80;;
32826;SDS011;51059;42.058;27.986;2023-04-03T07:12:31;11.03;;;5.83;;
32826;SDS011;51059;42.058;27.986;2023-04-03T07:14:57;10.90;;;5.50;;
32826;SDS011;51059;42.058;27.986;2023-04-03T07:17:23;11.17;;;5.90;;
32826;SDS011;51059;42.058;27.986;2023-04-03T07:19:50;14.07;;;6.07;;
32826;SDS011;51059;42.058;27.986;2023-04-03T07:22:16;11.20;;;5.97;;
32826;SDS011;51059;42.058;27.986;2023-04-03T07:24:42;11.97;;;6.00;;
32826;SDS011;51059;42.058;27.986;2023-04-03T07:27:07;13.07;;;5.67;;
32826;SDS011;51059;42.058;27.986;2023-04-03T07:29:34;11.93;;;5.70;;
32826;SDS011;51059;42.058;27.986;2023-04-03T07:32:00;8.73;;;5.57;;
32826;SDS011;51059;42.058;27.986;2023-04-03T07:34:26;13.37;;;5.50;;
32826;SDS011;51059;42.058;27.986;2023-04-03T07:36:52;9.93;;;5.30;;
32826;SDS011;51059;42.058;27.986;2023-04-03T07:39:18;11.40;;;5.93;;
32826;SDS011;51059;42.058;27.986;2023-04-03T07:41:44;9.50;;;5.40;;
32826;SDS011;51059;42.058;27.986;2023-04-03T07:44:09;11.60;;;5.93;;
32826;SDS011;51059;42.058;27.986;2023-04-03T07:46:35;10.93;;;5.40;;
32826;SDS011;51059;42.058;27.986;2023-04-03T07:49:01;10.83;;;5.37;;
32826;SDS011;51059;42.058;27.986;2023-04-03T07:51:27;9.87;;;4.90;;
32826;SDS011;51059;42.058;27.986;2023-04-03T07:53:54;8.97;;;5.13;;
32826;SDS011;51059;42.058;27.986;2023-04-03T07:56:20;12.27;;;5.30;;
32826;SDS011;51059;42.058;27.986;2023-04-03T07:58:46;11.67;;;5.43;;
32826;SDS011;51059;42.058;27.986;2023-04-03T08:01:11;8.77;;;5.00;;
32826;SDS011;51059;42.058;27.986;2023-04-03T08:03:38;10.43;;;5.57;;
32826;SDS011;51059;42.058;27.986;2023-04-03T08:06:04;8.70;;;5.17;;
32826;SDS011;51059;42.058;27.986;2023-04-03T08:08:31;12.70;;;5.33;;
32826;SDS011;51059;42.058;27.986;2023-04-03T08:10:58;10.70;;;6.00;;
32826;SDS011;51059;42.058;27.986;2023-04-03T08:13:25;10.23;;;5.57;;
32826;SDS011;51059;42.058;27.986;2023-04-03T08:15:51;11.93;;;6.70;;
32826;SDS011;51059;42.058;27.986;2023-04-03T08:18:17;8.90;;;5.57;;
32826;SDS011;51059;42.058;27.986;2023-04-03T08:20:46;10.17;;;5.50;;
32826;SDS011;51059;42.058;27.986;2023-04-03T08:23:12;9.17;;;5.67;;
32826;SDS011;51059;42.058;27.986;2023-04-03T08:25:42;11.20;;;5.27;;
32826;SDS011;51059;42.058;27.986;2023-04-03T08:28:10;9.50;;;4.80;;
32826;SDS011;51059;42.058;27.986;2023-04-03T08:30:38;8.97;;;5.50;;
32826;SDS011;51059;42.058;27.986;2023-04-03T08:33:05;9.73;;;5.80;;
32826;SDS011;51059;42.058;27.986;2023-04-03T08:35:31;9.67;;;5.53;;
32826;SDS011;51059;42.058;27.986;2023-04-03T08:37:56;6.87;;;4.60;;
32826;SDS011;51059;42.058;27.986;2023-04-03T08:40:22;11.00;;;4.33;;
32826;SDS011;51059;42.058;27.986;2023-04-03T08:43:08;9.73;;;4.67;;
32826;SDS011;51059;42.058;27.986;2023-04-03T08:46:11;8.70;;;4.83;;
32826;SDS011;51059;42.058;27.986;2023-04-03T08:48:39;10.80;;;4.70;;
32826;SDS011;51059;42.058;27.986;2023-04-03T08:51:20;9.33;;;4.30;;
32826;SDS011;51059;42.058;27.986;2023-04-03T08:54:06;10.93;;;4.60;;
32826;SDS011;51059;42.058;27.986;2023-04-03T08:56:34;4.97;;;3.63;;
32826;SDS011;51059;42.058;27.986;2023-04-03T08:59:01;7.03;;;4.10;;
32826;SDS011;51059;42.058;27.986;2023-04-03T09:01:37;5.43;;;3.30;;
32826;SDS011;51059;42.058;27.986;2023-04-03T09:04:14;6.10;;;3.13;;
32826;SDS011;51059;42.058;27.986;2023-04-03T09:06:42;5.63;;;3.03;;
32826;SDS011;51059;42.058;27.986;2023-04-03T09:12:18;5.33;;;2.67;;
32826;SDS011;51059;42.058;27.986;2023-04-03T09:20:31;6.70;;;2.77;;
32826;SDS011;51059;42.058;27.986;2023-04-03T09:23:29;4.83;;;2.90;;
32826;SDS011;51059;42.058;27.986;2023-04-03T09:26:17;8.20;;;2.83;;
32826;SDS011;51059;42.058;27.986;2023-04-03T09:29:18;5.90;;;2.97;;
32826;SDS011;51059;42.058;27.986;2023-04-03T09:31:49;4.77;;;3.03;;
32826;SDS011;51059;42.058;27.986;2023-04-03T09:40:03;4.53;;;3.07;;
32826;SDS011;51059;42.058;27.986;2023-04-03T09:42:30;3.47;;;2.57;;
32826;SDS011;51059;42.058;27.986;2023-04-03T09:44:59;4.50;;;2.80;;
32826;SDS011;51059;42.058;27.986;2023-04-03T09:47:36;3.73;;;3.33;;
32826;SDS011;51059;42.058;27.986;2023-04-03T09:52:43;5.77;;;3.00;;
32826;SDS011;51059;42.058;27.986;2023-04-03T09:55:14;5.53;;;3.20;;
32826;SDS011;51059;42.058;27.986;2023-04-03T09:57:45;3.20;;;2.90;;
32826;SDS011;51059;42.058;27.986;2023-04-03T10:00:21;5.97;;;3.20;;
32826;SDS011;51059;42.058;27.986;2023-04-03T10:02:54;5.20;;;3.30;;
32826;SDS011;51059;42.058;27.986;2023-04-03T10:05:39;3.63;;;2.87;;
32826;SDS011;51059;42.058;27.986;2023-04-03T10:08:10;5.83;;;3.37;;
32826;SDS011;51059;42.058;27.986;2023-04-03T10:10:36;3.60;;;3.00;;
32826;SDS011;51059;42.058;27.986;2023-04-03T10:13:06;4.20;;;2.87;;
32826;SDS011;51059;42.058;27.986;2023-04-03T10:15:36;6.23;;;3.30;;
32826;SDS011;51059;42.058;27.986;2023-04-03T10:18:13;4.37;;;3.50;;
32826;SDS011;51059;42.058;27.986;2023-04-03T10:21:09;4.00;;;3.20;;
32826;SDS011;51059;42.058;27.986;2023-04-03T10:24:02;4.87;;;3.70;;
32826;SDS011;51059;42.058;27.986;2023-04-03T10:26:51;6.73;;;3.73;;
32826;SDS011;51059;42.058;27.986;2023-04-03T10:41:38;5.73;;;4.33;;
32826;SDS011;51059;42.058;27.986;2023-04-03T10:47:01;4.93;;;3.87;;
32826;SDS011;51059;42.058;27.986;2023-04-03T10:52:39;8.10;;;4.27;;
32826;SDS011;51059;42.058;27.986;2023-04-03T10:55:38;6.03;;;3.80;;
32826;SDS011;51059;42.058;27.986;2023-04-03T10:58:27;6.23;;;4.10;;
32826;SDS011;51059;42.058;27.986;2023-04-03T11:01:23;6.53;;;3.63;;
32826;SDS011;51059;42.058;27.986;2023-04-03T11:03:52;5.03;;;3.27;;
32826;SDS011;51059;42.058;27.986;2023-04-03T11:06:19;5.63;;;3.63;;
32826;SDS011;51059;42.058;27.986;2023-04-03T11:08:50;4.57;;;3.63;;
32826;SDS011;51059;42.058;27.986;2023-04-03T11:11:22;6.97;;;3.70;;
32826;SDS011;51059;42.058;27.986;2023-04-03T11:13:54;6.00;;;3.97;;
32826;SDS011;51059;42.058;27.986;2023-04-03T11:16:25;6.93;;;3.70;;
32826;SDS011;51059;42.058;27.986;2023-04-03T11:19:11;6.00;;;3.60;;
32826;SDS011;51059;42.058;27.986;2023-04-03T11:27:56;4.53;;;3.73;;
32826;SDS011;51059;42.058;27.986;2023-04-03T11:33:55;5.70;;;4.70;;
32826;SDS011;51059;42.058;27.986;2023-04-03T11:36:29;6.80;;;4.33;;
32826;SDS011;51059;42.058;27.986;2023-04-03T11:38:57;9.27;;;4.50;;
32826;SDS011;51059;42.058;27.986;2023-04-03T11:41:28;5.03;;;4.20;;
32826;SDS011;51059;42.058;27.986;2023-04-03T11:47:02;6.20;;;3.80;;
32826;SDS011;51059;42.058;27.986;2023-04-03T11:52:53;4.53;;;3.83;;
32826;SDS011;51059;42.058;27.986;2023-04-03T12:18:57;6.73;;;4.60;;
32826;SDS011;51059;42.058;27.986;2023-04-03T12:26:34;6.87;;;4.57;;
32826;SDS011;51059;42.058;27.986;2023-04-03T12:29:02;9.87;;;5.20;;
32826;SDS011;51059;42.058;27.986;2023-04-03T12:31:42;5.47;;;4.87;;
32826;SDS011;51059;42.058;27.986;2023-04-03T12:34:38;7.30;;;5.73;;
32826;SDS011;51059;42.058;27.986;2023-04-03T12:39:51;8.60;;;5.33;;
32826;SDS011;51059;42.058;27.986;2023-04-03T12:42:29;6.73;;;6.00;;
32826;SDS011;51059;42.058;27.986;2023-04-03T12:45:17;7.60;;;6.57;;
32826;SDS011;51059;42.058;27.986;2023-04-03T12:47:45;8.00;;;6.77;;
32826;SDS011;51059;42.058;27.986;2023-04-03T12:55:42;8.80;;;6.37;;
32826;SDS011;51059;42.058;27.986;2023-04-03T12:58:24;7.77;;;6.33;;
32826;SDS011;51059;42.058;27.986;2023-04-03T13:00:59;8.43;;;6.83;;
32826;SDS011;51059;42.058;27.986;2023-04-03T13:03:25;9.50;;;6.90;;
32826;SDS011;51059;42.058;27.986;2023-04-03T13:05:56;9.57;;;6.63;;
32826;SDS011;51059;42.058;27.986;2023-04-03T13:08:25;9.07;;;6.90;;
32826;SDS011;51059;42.058;27.986;2023-04-03T13:10:53;9.90;;;7.20;;
32826;SDS011;51059;42.058;27.986;2023-04-03T13:13:20;9.33;;;7.10;;
32826;SDS011;51059;42.058;27.986;2023-04-03T13:15:48;11.17;;;7.27;;
32826;SDS011;51059;42.058;27.986;2023-04-03T13:21:13;9.50;;;7.60;;
32826;SDS011;51059;42.058;27.986;2023-04-03T13:23:42;10.90;;;7.40;;
32826;SDS011;51059;42.058;27.986;2023-04-03T13:26:10;9.03;;;7.27;;
32826;SDS011;51059;42.058;27.986;2023-04-03T13:28:36;10.57;;;7.63;;
32826;SDS011;51059;42.058;27.986;2023-04-03T13:31:08;8.83;;;7.23;;
32826;SDS011;51059;42.058;27.986;2023-04-03T13:34:18;9.70;;;7.70;;
32826;SDS011;51059;42.058;27.986;2023-04-03T13:41:38;12.47;;;9.67;;
32826;SDS011;51059;42.058;27.986;2023-04-03T13:46:46;11.77;;;9.20;;
32826;SDS011;51059;42.058;27.986;2023-04-03T13:49:19;13.13;;;9.47;;
32826;SDS011;51059;42.058;27.986;2023-04-03T13:51:45;12.53;;;9.30;;
32826;SDS011;51059;42.058;27.986;2023-04-03T13:54:16;11.00;;;8.97;;
32826;SDS011;51059;42.058;27.986;2023-04-03T13:56:44;11.50;;;9.30;;
32826;SDS011;51059;42.058;27.986;2023-04-03T14:04:11;12.30;;;10.10;;
32826;SDS011;51059;42.058;27.986;2023-04-03T14:06:48;12.10;;;10.03;;
32826;SDS011;51059;42.058;27.986;2023-04-03T14:09:15;12.30;;;9.50;;
32826;SDS011;51059;42.058;27.986;2023-04-03T14:11:42;13.30;;;10.10;;
32826;SDS011;51059;42.058;27.986;2023-04-03T14:14:18;14.67;;;12.33;;
32826;SDS011;51059;42.058;27.986;2023-04-03T14:16:47;16.70;;;14.50;;
32826;SDS011;51059;42.058;27.986;2023-04-03T14:19:23;18.97;;;14.90;;
32826;SDS011;51059;42.058;27.986;2023-04-03T14:21:51;18.43;;;14.23;;
32826;SDS011;51059;42.058;27.986;2023-04-03T14:24:18;16.67;;;13.40;;
32826;SDS011;51059;42.058;27.986;2023-04-03T14:26:45;17.23;;;14.27;;
32826;SDS011;51059;42.058;27.986;2023-04-03T14:29:11;19.07;;;14.93;;
32826;SDS011;51059;42.058;27.986;2023-04-03T14:31:38;18.37;;;15.30;;
32826;SDS011;51059;42.058;27.986;2023-04-03T14:34:04;17.87;;;15.93;;
32826;SDS011;51059;42.058;27.986;2023-04-03T14:36:30;20.07;;;16.37;;
32826;SDS011;51059;42.058;27.986;2023-04-03T14:38:56;20.00;;;17.30;;
32826;SDS011;51059;42.058;27.986;2023-04-03T14:41:23;22.27;;;16.60;;
32826;SDS011;51059;42.058;27.986;2023-04-03T14:43:49;19.07;;;15.07;;
32826;SDS011;51059;42.058;27.986;2023-04-03T14:46:29;25.17;;;16.90;;
32826;SDS011;51059;42.058;27.986;2023-04-03T14:48:57;22.10;;;16.77;;
32826;SDS011;51059;42.058;27.986;2023-04-03T14:51:23;22.63;;;17.97;;
32826;SDS011;51059;42.058;27.986;2023-04-03T14:53:49;21.53;;;16.03;;
32826;SDS011;51059;42.058;27.986;2023-04-03T14:56:26;22.20;;;17.00;;
32826;SDS011;51059;42.058;27.986;2023-04-03T14:58:57;22.63;;;17.67;;
32826;SDS011;51059;42.058;27.986;2023-04-03T15:01:24;19.50;;;16.47;;
32826;SDS011;51059;42.058;27.986;2023-04-03T15:03:50;19.97;;;15.47;;
32826;SDS011;51059;42.058;27.986;2023-04-03T15:06:16;19.67;;;14.90;;
32826;SDS011;51059;42.058;27.986;2023-04-03T15:08:42;15.10;;;12.40;;
32826;SDS011;51059;42.058;27.986;2023-04-03T15:11:09;17.33;;;12.77;;
32826;SDS011;51059;42.058;27.986;2023-04-03T15:13:36;19.47;;;12.87;;
32826;SDS011;51059;42.058;27.986;2023-04-03T15:16:02;16.00;;;13.13;;
32826;SDS011;51059;42.058;27.986;2023-04-03T15:18:29;20.07;;;12.87;;
32826;SDS011;51059;42.058;27.986;2023-04-03T15:20:58;18.20;;;13.03;;
32826;SDS011;51059;42.058;27.986;2023-04-03T15:23:23;15.80;;;12.10;;
32826;SDS011;51059;42.058;27.986;2023-04-03T15:25:51;15.73;;;10.60;;
32826;SDS011;51059;42.058;27.986;2023-04-03T15:28:30;14.30;;;9.97;;
32826;SDS011;51059;42.058;27.986;2023-04-03T15:30:58;11.83;;;9.70;;
32826;SDS011;51059;42.058;27.986;2023-04-03T15:33:24;13.77;;;10.57;;
32826;SDS011;51059;42.058;27.986;2023-04-03T15:35:50;11.63;;;9.73;;
32826;SDS011;51059;42.058;27.986;2023-04-03T15:38:16;10.73;;;9.00;;
32826;SDS011;51059;42.058;27.986;2023-04-03T15:40:41;12.10;;;8.30;;
32826;SDS011;51059;42.058;27.986;2023-04-03T15:43:08;13.17;;;9.27;;
32826;SDS011;51059;42.058;27.986;2023-04-03T15:45:35;11.03;;;8.90;;
32826;SDS011;51059;42.058;27.986;2023-04-03T15:48:02;10.33;;;8.60;;
32826;SDS011;51059;42.058;27.986;2023-04-03T15:50:28;11.53;;;9.00;;
32826;SDS011;51059;42.058;27.986;2023-04-03T15:52:54;12.27;;;9.50;;
32826;SDS011;51059;42.058;27.986;2023-04-03T15:55:21;11.20;;;9.30;;
32826;SDS011;51059;42.058;27.986;2023-04-03T15:57:47;12.73;;;8.60;;
32826;SDS011;51059;42.058;27.986;2023-04-03T16:00:13;10.63;;;8.80;;
32826;SDS011;51059;42.058;27.986;2023-04-03T16:02:39;9.40;;;8.40;;
32826;SDS011;51059;42.058;27.986;2023-04-03T16:05:05;10.93;;;8.30;;
32826;SDS011;51059;42.058;27.986;2023-04-03T16:07:31;11.37;;;9.27;;
32826;SDS011;51059;42.058;27.986;2023-04-03T16:09:57;14.40;;;9.73;;
32826;SDS011;51059;42.058;27.986;2023-04-03T16:12:22;21.97;;;16.63;;
32826;SDS011;51059;42.058;27.986;2023-04-03T16:14:48;16.17;;;13.10;;
32826;SDS011;51059;42.058;27.986;2023-04-03T16:17:13;12.17;;;9.63;;
32826;SDS011;51059;42.058;27.986;2023-04-03T16:19:39;12.63;;;10.20;;